Moquegua, Peru
Current Conditions -  °F | °C
As of 11:00 AM on Friday 19 Dec 2014 (Local Time) from SPQU Reporting Station
Clear Clear  
Wind Chill: 66°   Ceiling: Unl
Heat Index: 66°   Visibility: 6mi
Dew Point: 37°   Wind: 15mph
Humidity: 35%   Direction: 250°WSW
Pressure: 30.27"   Gusts: NA
Location:  17.19°S, 70.94°W
Report Text: SPQU 191600Z 25013KT CAVOK 19/03 Q1025 NOSIGRMK PP000
Loading
Personal Weather Stations






























Interactive Weather Map New forecast layout! Learn more

10-Day Weather Forecast

Advertisements
Track Severe Weather on mobile